createdAt,value
2022-08-12T00:01:10.390Z,2.28
2022-08-12T00:03:55.741Z,2.88
2022-08-12T00:06:41.995Z,2.30
2022-08-12T00:09:28.060Z,2.30
2022-08-12T00:12:13.622Z,2.30
2022-08-12T00:15:01.018Z,2.83
2022-08-12T00:17:47.308Z,3.25
2022-08-12T00:20:33.090Z,2.47
2022-08-12T00:23:18.417Z,2.95
2022-08-12T00:26:22.816Z,2.20
2022-08-12T00:29:11.880Z,2.30
2022-08-12T00:32:00.486Z,2.35
2022-08-12T00:34:49.164Z,2.47
2022-08-12T00:37:35.748Z,2.58
2022-08-12T00:40:24.631Z,2.67
2022-08-12T00:42:52.980Z,2.60
2022-08-12T00:45:20.922Z,2.65
2022-08-12T00:47:50.105Z,2.53
2022-08-12T00:50:19.580Z,2.15
2022-08-12T00:52:48.406Z,2.55
2022-08-12T00:55:16.517Z,3.13
2022-08-12T00:57:49.530Z,2.50
2022-08-12T01:00:18.433Z,2.50
2022-08-12T01:02:51.441Z,2.60
2022-08-12T01:05:40.330Z,2.63
2022-08-12T01:08:26.423Z,2.40
2022-08-12T01:11:15.297Z,2.28
2022-08-12T01:13:47.195Z,2.47
2022-08-12T01:16:17.347Z,2.80
2022-08-12T01:18:45.219Z,2.90
2022-08-12T01:21:27.134Z,2.28
2022-08-12T01:23:56.799Z,2.13
2022-08-12T01:26:25.067Z,2.83
2022-08-12T01:28:58.582Z,2.67
2022-08-12T01:31:27.794Z,2.50
2022-08-12T01:34:28.747Z,2.50
2022-08-12T01:37:03.193Z,2.53
2022-08-12T01:40:35.012Z,2.63
2022-08-12T01:42:31.491Z,2.17
2022-08-12T01:44:59.837Z,2.60
2022-08-12T01:47:53.670Z,2.60
2022-08-12T01:50:36.792Z,2.40
2022-08-12T01:53:10.504Z,2.40
2022-08-12T01:55:46.321Z,2.33
2022-08-12T01:58:51.729Z,2.88
2022-08-12T02:01:23.582Z,2.45
2022-08-12T02:04:55.405Z,3.00
2022-08-12T02:07:52.705Z,2.55
2022-08-12T02:11:07.280Z,3.20
2022-08-12T02:14:11.581Z,2.38
2022-08-12T02:16:51.003Z,2.55
2022-08-12T02:20:02.945Z,2.45
2022-08-12T02:22:48.246Z,2.13
2022-08-12T02:25:26.961Z,2.45
2022-08-12T02:27:55.404Z,2.67
2022-08-12T02:30:38.327Z,2.30
2022-08-12T02:33:10.679Z,2.85
2022-08-12T02:35:39.443Z,2.10
2022-08-12T02:38:09.746Z,2.78
2022-08-12T02:40:39.925Z,2.75
2022-08-12T02:43:21.705Z,2.40
2022-08-12T02:46:03.143Z,2.60
2022-08-12T02:48:51.150Z,2.97
2022-08-12T02:51:24.258Z,2.53
2022-08-12T02:54:05.552Z,2.65
2022-08-12T02:56:37.206Z,2.50
2022-08-12T02:59:04.426Z,2.78
2022-08-12T03:01:34.014Z,2.95
2022-08-12T03:04:04.162Z,2.58
2022-08-12T03:06:51.330Z,2.53
2022-08-12T03:09:21.830Z,2.90
2022-08-12T03:11:59.373Z,2.90
2022-08-12T03:14:29.529Z,2.78
2022-08-12T03:17:11.301Z,2.70
2022-08-12T03:20:10.434Z,2.97
2022-08-12T03:22:26.837Z,2.70
2022-08-12T03:24:54.595Z,2.95
2022-08-12T03:27:23.678Z,2.70
2022-08-12T03:29:51.906Z,2.72
2022-08-12T03:32:38.515Z,2.40
2022-08-12T03:35:07.709Z,2.55
2022-08-12T03:37:36.569Z,3.13
2022-08-12T03:40:04.164Z,2.78
2022-08-12T03:42:32.371Z,2.67
2022-08-12T03:45:52.638Z,2.90
2022-08-12T03:48:39.504Z,2.88
2022-08-12T03:51:26.289Z,3.05
2022-08-12T03:54:12.165Z,2.65
2022-08-12T03:56:58.334Z,2.85
2022-08-12T03:59:44.313Z,3.53
2022-08-12T04:02:17.780Z,3.00
2022-08-12T04:04:45.328Z,3.05
2022-08-12T04:07:13.907Z,3.25
2022-08-12T04:09:44.302Z,2.97
2022-08-12T04:12:32.882Z,3.08
2022-08-12T04:15:01.763Z,3.47
2022-08-12T04:17:29.614Z,3.03
2022-08-12T04:19:58.006Z,2.90
2022-08-12T04:22:29.367Z,3.00
2022-08-12T04:25:00.914Z,2.58
2022-08-12T04:27:31.506Z,2.63
2022-08-12T04:30:16.933Z,2.92
2022-08-12T04:32:50.544Z,3.83
2022-08-12T04:35:17.832Z,3.00
2022-08-12T04:37:59.130Z,3.20
2022-08-12T04:40:30.258Z,2.80
2022-08-12T04:42:58.606Z,2.72
2022-08-12T04:45:26.850Z,2.60
2022-08-12T04:47:53.746Z,2.60
2022-08-12T04:50:34.242Z,2.70
2022-08-12T04:53:03.539Z,3.28
2022-08-12T04:55:30.595Z,2.85
2022-08-12T04:57:57.498Z,2.38
2022-08-12T05:00:24.499Z,3.10
2022-08-12T05:02:52.395Z,2.90
2022-08-12T05:05:22.887Z,3.10
2022-08-12T05:07:54.158Z,3.50
2022-08-12T05:10:33.560Z,3.40
2022-08-12T05:13:05.926Z,3.00
2022-08-12T05:15:32.722Z,3.13
2022-08-12T05:17:59.693Z,3.63
2022-08-12T05:20:27.272Z,3.00
2022-08-12T05:23:17.427Z,2.78
2022-08-12T05:25:48.341Z,2.88
2022-08-12T05:28:18.923Z,3.80
2022-08-12T05:30:46.535Z,3.10
2022-08-12T05:33:15.487Z,3.50
2022-08-12T05:35:44.787Z,3.00
2022-08-12T05:38:31.712Z,3.35
2022-08-12T05:40:59.279Z,2.92
2022-08-12T05:43:26.742Z,3.70
2022-08-12T05:45:53.761Z,3.90
2022-08-12T05:48:21.508Z,2.95
2022-08-12T05:50:49.394Z,3.42
2022-08-12T05:53:16.287Z,4.00
2022-08-12T05:55:43.107Z,3.97
2022-08-12T05:58:11.082Z,4.28
2022-08-12T06:00:37.941Z,3.85
2022-08-12T06:03:05.952Z,4.40
2022-08-12T06:05:54.783Z,5.07
2022-08-12T06:08:24.721Z,4.53
2022-08-12T06:10:52.087Z,4.18
2022-08-12T06:13:28.078Z,4.20
2022-08-12T06:16:14.369Z,3.80
2022-08-12T06:18:42.373Z,4.22
2022-08-12T06:21:10.969Z,4.35
2022-08-12T06:23:42.454Z,3.53
2022-08-12T06:26:12.659Z,3.83
2022-08-12T06:28:39.875Z,4.50
2022-08-12T06:31:26.388Z,4.50
2022-08-12T06:34:00.916Z,4.90
2022-08-12T06:36:42.777Z,4.13
2022-08-12T06:39:14.567Z,5.15
2022-08-12T06:42:04.922Z,4.25
2022-08-12T06:44:50.409Z,4.68
2022-08-12T06:47:19.521Z,4.30
2022-08-12T06:49:48.634Z,3.63
2022-08-12T06:52:17.135Z,4.30
2022-08-12T06:54:45.647Z,4.13
2022-08-12T06:58:04.421Z,5.00
2022-08-12T06:59:59.272Z,3.63
2022-08-12T07:02:26.246Z,4.15
2022-08-12T07:04:53.097Z,4.47
2022-08-12T07:07:21.395Z,3.85
2022-08-12T07:10:04.087Z,4.25
2022-08-12T07:12:35.096Z,3.85
2022-08-12T07:15:02.628Z,3.95
2022-08-12T07:17:35.679Z,3.53
2022-08-12T07:22:37.668Z,4.15
2022-08-12T07:25:23.710Z,3.30
2022-08-12T07:27:55.689Z,3.58
2022-08-12T07:30:23.165Z,4.20
2022-08-12T07:32:51.646Z,4.05
2022-08-12T07:35:19.520Z,3.45
2022-08-12T07:37:47.298Z,3.75
2022-08-12T07:40:15.146Z,2.90
2022-08-12T07:42:44.004Z,3.42
2022-08-12T07:45:12.387Z,3.55
2022-08-12T07:47:43.410Z,3.30
2022-08-12T07:50:12.820Z,3.67
2022-08-12T07:52:42.682Z,3.15
2022-08-12T07:55:10.410Z,3.35
2022-08-12T07:57:49.822Z,3.55
2022-08-12T08:00:18.238Z,3.45
2022-08-12T08:02:45.433Z,2.90
2022-08-12T08:05:12.919Z,2.70
2022-08-12T08:07:42.474Z,2.88
2022-08-12T08:10:11.423Z,2.97
2022-08-12T08:12:53.813Z,2.92
2022-08-12T08:16:00.673Z,3.28
2022-08-12T08:18:26.876Z,2.72
2022-08-12T08:20:56.104Z,3.13
2022-08-12T08:23:46.160Z,3.13
2022-08-12T08:26:15.460Z,2.72
2022-08-12T08:28:44.706Z,2.78
2022-08-12T08:31:14.204Z,3.15
2022-08-12T08:34:05.041Z,3.03
2022-08-12T08:36:28.841Z,3.08
2022-08-12T08:38:58.273Z,2.70
2022-08-12T08:42:16.099Z,2.55
2022-08-12T08:44:39.353Z,2.90
2022-08-12T08:47:08.425Z,2.83
2022-08-12T08:49:38.646Z,2.20
2022-08-12T08:52:08.103Z,2.70
2022-08-12T08:54:35.111Z,2.60
2022-08-12T08:57:04.549Z,2.13
2022-08-12T08:59:31.607Z,3.05
2022-08-12T09:02:00.577Z,2.38
2022-08-12T09:05:11.779Z,3.03
2022-08-12T09:07:51.542Z,2.15
2022-08-12T09:10:09.105Z,2.50
2022-08-12T09:13:02.069Z,2.70
2022-08-12T09:15:35.259Z,2.53
2022-08-12T09:18:08.469Z,2.70
2022-08-12T09:20:38.268Z,2.50
2022-08-12T09:23:07.999Z,2.70
2022-08-12T09:25:54.676Z,2.60
2022-08-12T09:28:30.839Z,2.30
2022-08-12T09:30:59.292Z,2.38
2022-08-12T09:34:29.178Z,2.80
2022-08-12T09:36:31.164Z,2.40
2022-08-12T09:40:05.067Z,2.10
2022-08-12T09:42:39.079Z,2.33
2022-08-12T09:45:23.462Z,2.47
2022-08-12T09:47:59.143Z,2.22
2022-08-12T09:50:27.101Z,2.28
2022-08-12T09:53:29.076Z,2.65
2022-08-12T09:56:39.780Z,2.53
2022-08-12T09:58:57.654Z,2.60
2022-08-12T10:01:34.450Z,2.53
2022-08-12T10:04:04.917Z,2.58
2022-08-12T10:06:36.296Z,2.15
2022-08-12T10:09:08.322Z,1.92
2022-08-12T10:12:11.605Z,1.88
2022-08-12T10:17:21.493Z,2.40
2022-08-12T10:19:52.021Z,2.08
2022-08-12T10:22:39.240Z,2.20
2022-08-12T10:26:18.494Z,2.30
2022-08-12T10:28:36.575Z,2.10
2022-08-12T10:31:06.038Z,2.15
2022-08-12T10:33:34.470Z,2.47
2022-08-12T10:36:36.422Z,2.17
2022-08-12T10:40:00.969Z,2.20
2022-08-12T10:42:15.689Z,2.05
2022-08-12T10:44:46.809Z,2.10
2022-08-12T10:47:25.991Z,2.25
2022-08-12T10:50:03.143Z,2.60
2022-08-12T10:52:41.230Z,2.30
2022-08-12T10:55:13.446Z,2.50
2022-08-12T10:58:13.545Z,2.58
2022-08-12T11:00:33.739Z,1.95
2022-08-12T11:04:22.638Z,1.83
2022-08-12T11:07:06.995Z,2.38
2022-08-12T11:08:43.267Z,2.10
2022-08-12T11:11:17.527Z,2.40
2022-08-12T11:13:48.919Z,1.63
2022-08-12T11:16:21.892Z,2.33
2022-08-12T11:18:55.397Z,1.70
2022-08-12T11:21:51.425Z,1.88
2022-08-12T11:24:30.495Z,2.10
2022-08-12T11:27:00.367Z,1.98
2022-08-12T11:30:06.567Z,2.08
2022-08-12T11:32:15.598Z,1.63
2022-08-12T11:34:53.001Z,1.73
2022-08-12T11:37:26.110Z,1.75
2022-08-12T11:42:39.793Z,2.05
2022-08-12T11:45:16.894Z,1.80
2022-08-12T11:47:44.670Z,1.92
2022-08-12T11:50:19.030Z,1.80
2022-08-12T11:53:59.103Z,2.35
2022-08-12T11:55:46.930Z,1.75
2022-08-12T11:59:44.352Z,1.83
2022-08-12T12:03:47.999Z,2.13
2022-08-12T12:06:17.775Z,2.15
2022-08-12T12:08:50.895Z,2.00
2022-08-12T12:11:18.926Z,1.75
2022-08-12T12:14:10.961Z,1.95
2022-08-12T12:16:33.718Z,2.30
2022-08-12T12:19:08.821Z,2.22
2022-08-12T12:21:48.668Z,2.97
2022-08-12T12:24:21.681Z,2.30
2022-08-12T12:26:59.762Z,2.45
2022-08-12T12:30:19.553Z,2.42
2022-08-12T12:32:17.037Z,2.40
2022-08-12T12:36:06.061Z,2.33
2022-08-12T12:38:03.468Z,2.60
2022-08-12T12:40:21.365Z,2.40
2022-08-12T12:42:56.802Z,2.75
2022-08-12T12:45:33.195Z,2.00
2022-08-12T12:48:29.216Z,2.58
2022-08-12T12:51:48.951Z,2.10
2022-08-12T12:54:07.902Z,2.05
2022-08-12T12:56:40.327Z,2.42
2022-08-12T12:59:54.818Z,2.10
2022-08-12T13:02:09.249Z,2.25
2022-08-12T13:04:37.166Z,2.33
2022-08-12T13:07:05.833Z,1.80
2022-08-12T13:09:36.024Z,2.45
2022-08-12T13:12:09.183Z,2.15
2022-08-12T13:14:40.100Z,1.90
2022-08-12T13:17:09.546Z,2.00
2022-08-12T13:19:45.109Z,2.00
2022-08-12T13:22:21.297Z,1.85
2022-08-12T13:24:56.204Z,1.90
2022-08-12T13:27:35.212Z,1.98
2022-08-12T13:30:07.042Z,1.75
2022-08-12T13:33:05.994Z,1.70
2022-08-12T13:36:05.689Z,1.95
2022-08-12T13:38:44.633Z,1.90
2022-08-12T13:41:33.714Z,2.15
2022-08-12T13:44:10.630Z,2.00
2022-08-12T13:46:38.745Z,1.92
2022-08-12T13:49:06.389Z,2.40
2022-08-12T13:51:41.087Z,2.03
2022-08-12T13:54:11.807Z,2.10
2022-08-12T13:56:41.650Z,1.90
2022-08-12T13:59:20.494Z,1.80
2022-08-12T14:01:52.232Z,2.10
2022-08-12T14:04:19.234Z,1.85
2022-08-12T14:06:50.434Z,1.92
2022-08-12T14:09:20.494Z,2.38
2022-08-12T14:11:59.509Z,1.42
2022-08-12T14:14:31.144Z,1.80
2022-08-12T14:17:02.333Z,8.00
2022-08-12T14:19:36.004Z,2.95
2022-08-12T14:22:05.779Z,2.00
2022-08-12T14:24:40.593Z,2.00
2022-08-12T14:27:10.997Z,1.98
2022-08-12T14:30:05.055Z,2.20
2022-08-12T14:32:31.138Z,1.73
2022-08-12T14:34:58.180Z,1.90
2022-08-12T14:37:57.957Z,1.60
2022-08-12T14:40:18.544Z,1.77
2022-08-12T14:42:47.020Z,2.00
2022-08-12T14:45:14.351Z,1.77
2022-08-12T14:47:51.303Z,1.70
2022-08-12T14:50:58.578Z,2.17
2022-08-12T14:59:23.659Z,2.30
2022-08-12T15:02:20.470Z,1.80
2022-08-12T15:04:59.355Z,1.90
2022-08-12T15:07:43.845Z,1.95
2022-08-12T15:10:31.564Z,1.90
2022-08-12T15:13:07.703Z,2.03
2022-08-12T15:15:43.918Z,1.90
2022-08-12T15:18:16.040Z,1.73
2022-08-12T15:20:50.689Z,1.92
2022-08-12T15:23:21.383Z,1.98
2022-08-12T15:26:02.456Z,1.50
2022-08-12T15:28:32.909Z,2.15
2022-08-12T15:31:00.826Z,1.83
2022-08-12T15:33:46.221Z,1.80
2022-08-12T15:36:19.229Z,1.92
2022-08-12T15:41:14.799Z,2.33
2022-08-12T15:44:17.128Z,1.65
2022-08-12T15:46:32.403Z,1.70
2022-08-12T15:48:59.476Z,2.30
2022-08-12T15:51:59.921Z,1.67
2022-08-12T15:54:35.076Z,1.98
2022-08-12T15:57:10.681Z,2.00
2022-08-12T16:00:00.793Z,1.80
2022-08-12T16:07:04.352Z,2.35
2022-08-12T16:09:21.674Z,1.90
2022-08-12T16:12:07.775Z,1.73
2022-08-12T16:14:39.059Z,1.88
2022-08-12T16:17:08.812Z,2.20
2022-08-12T16:20:03.083Z,1.80
2022-08-12T16:22:24.398Z,2.05
2022-08-12T16:24:54.160Z,2.08
2022-08-12T16:27:23.677Z,2.00
2022-08-12T16:29:57.065Z,1.85
2022-08-12T16:35:00.788Z,1.90
2022-08-12T16:38:24.747Z,2.10
2022-08-12T16:40:21.680Z,1.98
2022-08-12T16:42:53.276Z,1.58
2022-08-12T16:45:24.417Z,2.15
2022-08-12T16:48:34.002Z,2.22
2022-08-12T16:51:10.220Z,2.20
2022-08-12T16:53:44.346Z,1.73
2022-08-12T16:56:16.896Z,2.47
2022-08-12T16:58:44.603Z,2.17
2022-08-12T17:01:15.927Z,1.80
2022-08-12T17:03:47.061Z,1.95
2022-08-12T17:06:27.335Z,2.05
2022-08-12T17:09:02.403Z,2.08
2022-08-12T17:11:32.869Z,1.92
2022-08-12T17:14:01.432Z,1.92
2022-08-12T17:16:30.096Z,2.20
2022-08-12T17:18:59.619Z,2.17
2022-08-12T17:21:41.178Z,2.05
2022-08-12T17:24:21.543Z,2.17
2022-08-12T17:26:49.937Z,2.38
2022-08-12T17:29:19.453Z,2.08
2022-08-12T17:32:02.675Z,2.25
2022-08-12T17:34:49.133Z,2.53
2022-08-12T17:37:16.514Z,2.65
2022-08-12T17:40:06.548Z,2.42
2022-08-12T17:42:35.541Z,2.92
2022-08-12T17:45:17.058Z,2.20
2022-08-12T17:48:01.042Z,2.38
2022-08-12T17:50:34.039Z,3.63
2022-08-12T17:53:02.787Z,2.67
2022-08-12T17:55:43.600Z,2.95
2022-08-12T17:58:15.071Z,3.03
2022-08-12T18:00:50.355Z,4.07
2022-08-12T18:04:05.769Z,2.90
2022-08-12T18:06:13.715Z,3.33
2022-08-12T18:08:54.311Z,2.50
2022-08-12T18:12:04.051Z,2.35
2022-08-12T18:14:30.309Z,2.13
2022-08-12T18:17:01.605Z,2.85
2022-08-12T18:19:48.603Z,2.35
2022-08-12T18:22:22.176Z,2.35
2022-08-12T18:26:13.037Z,2.00
2022-08-12T18:28:16.126Z,2.38
2022-08-12T18:30:52.954Z,2.40
2022-08-12T18:33:25.106Z,2.50
2022-08-12T18:35:55.543Z,2.47
2022-08-12T18:38:25.322Z,1.85
2022-08-12T18:41:21.869Z,2.55
2022-08-12T18:44:03.018Z,2.30
2022-08-12T18:46:55.177Z,3.25
2022-08-12T18:49:32.004Z,2.35
2022-08-12T18:52:05.711Z,2.17
2022-08-12T18:54:41.397Z,2.40
2022-08-12T18:57:45.869Z,2.05
2022-08-12T19:00:10.915Z,2.38
2022-08-12T19:02:40.326Z,2.10
2022-08-12T19:05:14.724Z,1.80
2022-08-12T19:08:00.728Z,2.58
2022-08-12T19:10:31.099Z,3.33
2022-08-12T19:13:23.500Z,2.45
2022-08-12T19:15:54.716Z,2.15
2022-08-12T19:18:29.328Z,2.22
2022-08-12T19:20:58.534Z,8.77
2022-08-12T19:23:33.810Z,2.35
2022-08-12T19:26:03.631Z,2.47
2022-08-12T19:28:34.546Z,2.10
2022-08-12T19:31:56.093Z,2.08
2022-08-12T19:35:24.063Z,2.60
2022-08-12T19:38:02.444Z,2.25
2022-08-12T19:40:19.981Z,2.30
2022-08-12T19:42:53.427Z,2.20
2022-08-12T19:47:49.116Z,2.15
2022-08-12T19:50:19.930Z,5.15
2022-08-12T19:52:48.017Z,2.60
2022-08-12T19:55:21.269Z,2.42
2022-08-12T19:58:01.927Z,2.33
2022-08-12T20:00:32.058Z,2.72
2022-08-12T20:03:04.479Z,2.40
2022-08-12T20:06:05.682Z,2.40
2022-08-12T20:08:31.668Z,2.15
2022-08-12T20:12:12.225Z,2.50
2022-08-12T20:14:00.518Z,2.10
2022-08-12T20:16:53.066Z,2.30
2022-08-12T20:19:52.447Z,2.63
2022-08-12T20:22:24.901Z,2.42
2022-08-12T20:25:01.724Z,2.25
2022-08-12T20:28:05.606Z,1.90
2022-08-12T20:30:20.586Z,2.20
2022-08-12T20:33:05.193Z,1.98
2022-08-12T20:36:06.441Z,2.53
2022-08-12T20:38:26.918Z,1.98
2022-08-12T20:40:55.804Z,2.28
2022-08-12T20:43:24.135Z,1.98
2022-08-12T20:45:57.368Z,2.00
2022-08-12T20:48:29.486Z,2.00
2022-08-12T20:51:04.391Z,2.13
2022-08-12T20:53:57.611Z,2.22
2022-08-12T20:56:36.734Z,2.17
2022-08-12T20:59:14.663Z,2.42
2022-08-12T21:01:48.520Z,2.13
2022-08-12T21:04:36.325Z,2.08
2022-08-12T21:07:09.299Z,2.30
2022-08-12T21:09:49.959Z,2.15
2022-08-12T21:12:31.620Z,2.40
2022-08-12T21:15:23.217Z,2.65
2022-08-12T21:18:11.975Z,1.75
2022-08-12T21:20:52.696Z,2.20
2022-08-12T21:23:23.800Z,1.88
2022-08-12T21:25:56.005Z,2.00
2022-08-12T21:28:27.511Z,2.75
2022-08-12T21:31:11.204Z,2.30
2022-08-12T21:33:58.475Z,2.25
2022-08-12T21:36:35.157Z,1.92
2022-08-12T21:39:20.260Z,1.73
2022-08-12T21:41:52.833Z,1.85
2022-08-12T21:45:46.182Z,2.50
2022-08-12T21:47:34.337Z,1.60
2022-08-12T21:50:04.437Z,1.83
2022-08-12T21:52:42.125Z,2.03
2022-08-12T21:55:19.577Z,2.47
2022-08-12T21:57:53.013Z,1.95
2022-08-12T22:00:33.435Z,1.70
2022-08-12T22:04:02.880Z,1.95
2022-08-12T22:06:26.415Z,2.33
2022-08-12T22:09:04.331Z,1.58
2022-08-12T22:11:42.351Z,1.90
2022-08-12T22:14:21.503Z,1.60
2022-08-12T22:16:53.483Z,2.20
2022-08-12T22:19:22.593Z,2.10
2022-08-12T22:21:53.051Z,1.90
2022-08-12T22:24:27.180Z,1.83
2022-08-12T22:27:14.355Z,2.00
2022-08-12T22:30:16.883Z,1.35
2022-08-12T22:32:51.541Z,2.13
2022-08-12T22:35:47.565Z,1.98
2022-08-12T22:38:24.317Z,1.60
2022-08-12T22:40:58.503Z,2.20
2022-08-12T22:44:00.314Z,1.85
2022-08-12T22:46:52.889Z,2.20
2022-08-12T22:49:36.878Z,2.15
2022-08-12T22:52:18.570Z,2.22
2022-08-12T22:55:03.489Z,1.83
2022-08-12T22:57:49.429Z,1.52
2022-08-12T23:00:27.334Z,2.38
2022-08-12T23:03:00.776Z,2.08
2022-08-12T23:05:56.669Z,1.95
2022-08-12T23:08:30.056Z,1.80
2022-08-12T23:11:00.410Z,1.75
2022-08-12T23:13:47.197Z,1.60
2022-08-12T23:16:28.435Z,1.83
2022-08-12T23:19:10.046Z,1.50
2022-08-12T23:22:05.621Z,1.90
2022-08-12T23:24:56.073Z,1.60
2022-08-12T23:27:50.118Z,1.53
2022-08-12T23:30:32.334Z,2.13
2022-08-12T23:33:19.847Z,1.60
2022-08-12T23:36:03.069Z,1.90
2022-08-12T23:38:32.599Z,1.95
2022-08-12T23:41:02.022Z,1.95
2022-08-12T23:43:39.163Z,1.58
2022-08-12T23:46:10.412Z,2.05
2022-08-12T23:48:38.466Z,1.85
2022-08-12T23:51:22.080Z,1.70
2022-08-12T23:53:56.230Z,1.98
2022-08-12T23:56:25.237Z,1.88
2022-08-12T23:58:55.091Z,2.08
